LFBH/LRH METAR and TAF weather

Enter ICAO airport designator
Station Type Date Time Source
LFBH METAR 2018/12/13 06:00 UTC NOAA

LFBH 130600Z AUTO 13013KT 7000 OVC004 06/05 Q1007 TEMPO 3000 BR


Station Type Date Time Source
LFBH Decoded METAR 2018/12/13 06:00 UTC NOAA

La Rochelle, France (LFBH) 46-09N 001-09W 10M
Dec 13, 2018 - 01:00 AM EST / 2018.12.13 0600 UTC
Wind: from the SE (130 degrees) at 15 MPH (13 KT):0
Visibility: 4 mile(s):0
Sky conditions: overcast
Temperature: 42 F (6 C)
Dew Point: 41 F (5 C)
Relative Humidity: 93%
Pressure (altimeter): 29.74 in. Hg (1007 hPa)
ob: LFBH 130600Z AUTO 13013KT 7000 OVC004 06/05 Q1007 TEMPO 3000 BR
cycle: 6

Station Type Date Time Source
LFBH TAF 2018/12/13 06:21 UTC NOAA

TAF LFBH 130500Z 1306/1406 13012KT 9999 BKN010
TEMPO 1306/1309 3000 BR OVC003
TEMPO 1309/1318 4000 -RA BKN005 OVC040
BECMG 1318/1320 06012KT SCT005 BKN040
BECMG 1321/1323 03010KT CAVOK PROB30
TEMPO 1400/1406 BKN005


Example: see airport list